New York, New York
Traffic Map
Current Weather Conditions
New York, New York
Few Clouds
Few Clouds
61°
Feels Like: 61°
Wind Chill: 61° Ceiling: Unl
Heat Index: 61° Visibility: 10mi
Dew Point: 50° Wind: 6mph
Humidity: 67% Direction: ° ()
Pressure: 29.83in Gusts: 0mph
Raw Report DataKNYC 250129Z AUTO VRB05KT 10SM FEW002 16/10 A2983 RMK AO2 T01610100 $
Traffic Incident Summary
Active as of:
Severity:
Category:
InformationThere was an issue retrieving the traffic information for this location. Please try a different location or try again shortly.
Advertisements
Track Severe Weather on mobile